Aérodrome :
LOGIN :

S'inscrire | Disclaimer

   EN    FR    IT 

 










Légende :    VFR   VFR Marginal   IFR   IFR Intensif   IFR Très Intensif
Visi : 
Plafond : 
>= 8 km
>= 3000ft
5 à 8 km
1000 à 3000 ft
1500m à 5 km
500 à 1000 ft
800 à 1500m
200 à 500 ft
< 800m
< 200 ft
Symboles :   Orages  Brouillard  Fortes neiges  Fortes précipitations  Vent > 20 kt
SIGMETs :   Divers  Orages  Givrage  Turbulence  Onde Orograph.  Cendres Volcan.







- Altitude de l'aérodrome : 219 ft
- Code IATA : DNR
- Voir les cartes d'approche


LFRD - Dinard

DERNIER METAR :
  • 231800Z AUTO 17004KT 9999 BKN044 BKN072 BKN082 10/07 Q1008 TEMPO 3000 RA BKN010CB

METARs EXPIRÉS :
  • 231730Z AUTO 19003KT 9999 BKN034 OVC042 11/07 Q1009 NOSIG
  • 231700Z AUTO 19002KT 9999 FEW028 BKN036 BKN045 11/07 Q1008 NOSIG
  • 231630Z AUTO 21003KT 9999 BKN036 OVC044 11/07 Q1008 NOSIG
  • 231600Z AUTO 21004KT 9999 OVC043 11/07 Q1008 NOSIG
  • 231530Z AUTO 23005KT 9999 OVC045 12/06 Q1008 BECMG 17010KT

TAF TAF LFRD
Valide du 23 à 18h jusqu'au 24 à 18h UTC


231700Z 2318/2418 18010KT 9999 BKN030
TEMPO 2320/2402 3000 RA BKN010CB
BECMG 2321/2324 23022G33KT
BECMG 2400/2403 33012KT
PROB30
TEMPO 2402/2406 5000 RA BKN010
BECMG 2406/2409 22006KT
TEMPO 2413/2418 5000 SHRA BKN015
ATIS : +33 2 99 16 81 50
Pas de NOTAMs connus pour ce terrain.



MET'MAP, la Météo Aéronautique d'un coup d'oeil ! - Copyright ORBIFLY Décembre 2007 - Disclaimer

ORBIFLY MET'MAP TEAM :

Programmation & Développement : Alexandra Zaïnal
Conception & Développement : Baudouin d'Aumeries
Co-Programmation & Développement : Marc-Olivier Méhu
Soutien technique & logistique : Manuel Goepfert

Contact : metmap@orbifly.com




SOURCES & CREDITS :

   NOAA